sensor_id;sensor_type;location;lat;lon;timestamp;P1;durP1;ratioP1;P2;durP2;ratioP2
836;SDS011;400;53.550;9.932;2024-03-23T00:51:20;18.33;;;6.60;;
836;SDS011;400;53.550;9.932;2024-03-23T00:53:46;18.00;;;6.43;;
836;SDS011;400;53.550;9.932;2024-03-23T00:56:14;19.98;;;6.25;;
836;SDS011;400;53.550;9.932;2024-03-23T00:58:40;17.00;;;5.30;;
836;SDS011;400;53.550;9.932;2024-03-23T01:01:09;17.17;;;5.70;;
836;SDS011;400;53.550;9.932;2024-03-23T01:03:38;23.90;;;6.88;;
836;SDS011;400;53.550;9.932;2024-03-23T01:06:04;15.80;;;4.57;;
836;SDS011;400;53.550;9.932;2024-03-23T01:08:32;9.90;;;4.88;;
836;SDS011;400;53.550;9.932;2024-03-23T01:10:59;19.10;;;5.13;;
836;SDS011;400;53.550;9.932;2024-03-23T01:13:26;12.50;;;5.25;;
836;SDS011;400;53.550;9.932;2024-03-23T01:15:54;20.43;;;5.63;;
836;SDS011;400;53.550;9.932;2024-03-23T01:18:21;21.55;;;5.75;;
836;SDS011;400;53.550;9.932;2024-03-23T01:20:49;20.13;;;5.88;;
836;SDS011;400;53.550;9.932;2024-03-23T01:23:15;24.30;;;6.23;;
836;SDS011;400;53.550;9.932;2024-03-23T01:25:44;15.32;;;4.28;;
836;SDS011;400;53.550;9.932;2024-03-23T01:28:20;18.63;;;4.80;;
836;SDS011;400;53.550;9.932;2024-03-23T01:30:47;24.55;;;6.03;;
836;SDS011;400;53.550;9.932;2024-03-23T01:33:13;13.80;;;4.70;;
836;SDS011;400;53.550;9.932;2024-03-23T01:35:40;21.00;;;5.20;;
836;SDS011;400;53.550;9.932;2024-03-23T01:38:06;15.83;;;4.80;;
836;SDS011;400;53.550;9.932;2024-03-23T01:40:36;14.93;;;4.53;;
836;SDS011;400;53.550;9.932;2024-03-23T01:43:04;16.85;;;5.35;;
836;SDS011;400;53.550;9.932;2024-03-23T01:45:32;16.67;;;5.47;;
836;SDS011;400;53.550;9.932;2024-03-23T01:47:59;15.82;;;5.18;;
836;SDS011;400;53.550;9.932;2024-03-23T01:50:26;18.50;;;4.50;;
836;SDS011;400;53.550;9.932;2024-03-23T01:52:52;14.02;;;4.45;;
836;SDS011;400;53.550;9.932;2024-03-23T01:55:19;17.48;;;4.93;;
836;SDS011;400;53.550;9.932;2024-03-23T01:57:46;14.17;;;4.70;;
836;SDS011;400;53.550;9.932;2024-03-23T02:00:17;18.90;;;5.97;;
836;SDS011;400;53.550;9.932;2024-03-23T02:02:43;18.50;;;4.90;;
836;SDS011;400;53.550;9.932;2024-03-23T02:05:10;19.77;;;5.22;;
836;SDS011;400;53.550;9.932;2024-03-23T02:07:36;19.73;;;4.93;;
836;SDS011;400;53.550;9.932;2024-03-23T02:10:04;16.48;;;5.50;;
836;SDS011;400;53.550;9.932;2024-03-23T02:12:32;14.32;;;5.25;;
836;SDS011;400;53.550;9.932;2024-03-23T02:14:58;20.33;;;4.90;;
836;SDS011;400;53.550;9.932;2024-03-23T02:17:26;14.43;;;4.50;;
836;SDS011;400;53.550;9.932;2024-03-23T02:19:52;21.15;;;5.10;;
836;SDS011;400;53.550;9.932;2024-03-23T02:22:19;11.60;;;5.43;;
836;SDS011;400;53.550;9.932;2024-03-23T02:24:47;15.02;;;4.85;;
836;SDS011;400;53.550;9.932;2024-03-23T02:27:12;12.47;;;4.27;;
836;SDS011;400;53.550;9.932;2024-03-23T02:29:40;13.52;;;4.70;;
836;SDS011;400;53.550;9.932;2024-03-23T02:32:07;14.33;;;4.97;;
836;SDS011;400;53.550;9.932;2024-03-23T02:34:34;20.77;;;5.75;;
836;SDS011;400;53.550;9.932;2024-03-23T02:37:01;10.50;;;4.45;;
836;SDS011;400;53.550;9.932;2024-03-23T02:39:27;16.08;;;4.88;;
836;SDS011;400;53.550;9.932;2024-03-23T02:41:55;11.43;;;3.88;;
836;SDS011;400;53.550;9.932;2024-03-23T02:44:21;17.10;;;5.03;;
836;SDS011;400;53.550;9.932;2024-03-23T02:46:48;15.80;;;4.22;;
836;SDS011;400;53.550;9.932;2024-03-23T02:49:13;19.00;;;5.43;;
836;SDS011;400;53.550;9.932;2024-03-23T02:51:40;23.45;;;5.35;;
836;SDS011;400;53.550;9.932;2024-03-23T02:54:06;13.23;;;4.70;;
836;SDS011;400;53.550;9.932;2024-03-23T02:56:33;21.65;;;5.78;;
836;SDS011;400;53.550;9.932;2024-03-23T02:59:00;13.63;;;4.40;;
836;SDS011;400;53.550;9.932;2024-03-23T03:01:27;14.95;;;4.22;;
836;SDS011;400;53.550;9.932;2024-03-23T03:03:53;16.15;;;4.90;;
836;SDS011;400;53.550;9.932;2024-03-23T03:06:23;13.88;;;4.38;;
836;SDS011;400;53.550;9.932;2024-03-23T03:08:49;14.13;;;4.22;;
836;SDS011;400;53.550;9.932;2024-03-23T03:11:16;17.63;;;5.37;;
836;SDS011;400;53.550;9.932;2024-03-23T03:13:42;15.77;;;4.57;;
836;SDS011;400;53.550;9.932;2024-03-23T03:16:10;17.75;;;4.68;;
836;SDS011;400;53.550;9.932;2024-03-23T03:18:36;18.00;;;5.10;;
836;SDS011;400;53.550;9.932;2024-03-23T03:21:03;17.40;;;5.20;;
836;SDS011;400;53.550;9.932;2024-03-23T03:23:33;15.43;;;4.90;;
836;SDS011;400;53.550;9.932;2024-03-23T03:26:00;16.63;;;4.33;;
836;SDS011;400;53.550;9.932;2024-03-23T03:28:26;14.40;;;3.95;;
836;SDS011;400;53.550;9.932;2024-03-23T03:30:55;11.38;;;4.15;;
836;SDS011;400;53.550;9.932;2024-03-23T03:33:23;20.33;;;9.57;;
836;SDS011;400;53.550;9.932;2024-03-23T03:35:49;17.02;;;4.68;;
836;SDS011;400;53.550;9.932;2024-03-23T03:38:18;17.27;;;5.45;;
836;SDS011;400;53.550;9.932;2024-03-23T03:40:44;12.83;;;4.50;;
836;SDS011;400;53.550;9.932;2024-03-23T03:43:10;21.20;;;4.77;;
836;SDS011;400;53.550;9.932;2024-03-23T03:45:37;18.08;;;4.68;;
836;SDS011;400;53.550;9.932;2024-03-23T03:48:03;18.15;;;4.28;;
836;SDS011;400;53.550;9.932;2024-03-23T03:50:32;16.33;;;4.75;;
836;SDS011;400;53.550;9.932;2024-03-23T03:52:58;14.93;;;4.57;;
836;SDS011;400;53.550;9.932;2024-03-23T03:55:25;16.23;;;5.32;;
836;SDS011;400;53.550;9.932;2024-03-23T03:57:51;11.20;;;4.18;;
836;SDS011;400;53.550;9.932;2024-03-23T04:00:18;17.77;;;5.75;;
836;SDS011;400;53.550;9.932;2024-03-23T04:02:44;17.07;;;4.67;;
836;SDS011;400;53.550;9.932;2024-03-23T04:05:11;20.38;;;4.53;;
836;SDS011;400;53.550;9.932;2024-03-23T04:07:39;21.20;;;4.25;;
836;SDS011;400;53.550;9.932;2024-03-23T04:10:06;18.23;;;5.35;;
836;SDS011;400;53.550;9.932;2024-03-23T04:12:33;18.02;;;5.60;;
836;SDS011;400;53.550;9.932;2024-03-23T04:15:00;15.90;;;4.57;;
836;SDS011;400;53.550;9.932;2024-03-23T04:17:28;17.00;;;5.00;;
836;SDS011;400;53.550;9.932;2024-03-23T04:19:57;15.05;;;4.25;;
836;SDS011;400;53.550;9.932;2024-03-23T04:22:23;11.07;;;3.90;;
836;SDS011;400;53.550;9.932;2024-03-23T04:24:52;14.27;;;4.22;;
836;SDS011;400;53.550;9.932;2024-03-23T04:27:18;14.13;;;4.38;;
836;SDS011;400;53.550;9.932;2024-03-23T04:29:46;12.93;;;4.38;;
836;SDS011;400;53.550;9.932;2024-03-23T04:32:13;15.00;;;5.07;;
836;SDS011;400;53.550;9.932;2024-03-23T04:34:40;20.55;;;4.50;;
836;SDS011;400;53.550;9.932;2024-03-23T04:37:06;15.57;;;5.22;;
836;SDS011;400;53.550;9.932;2024-03-23T04:39:33;13.27;;;4.50;;
836;SDS011;400;53.550;9.932;2024-03-23T04:42:03;14.25;;;4.38;;
836;SDS011;400;53.550;9.932;2024-03-23T04:44:36;12.35;;;3.70;;
836;SDS011;400;53.550;9.932;2024-03-23T04:47:04;15.88;;;5.00;;
836;SDS011;400;53.550;9.932;2024-03-23T04:49:31;24.38;;;6.32;;
836;SDS011;400;53.550;9.932;2024-03-23T04:51:58;11.20;;;4.18;;
836;SDS011;400;53.550;9.932;2024-03-23T04:54:25;13.90;;;4.28;;
836;SDS011;400;53.550;9.932;2024-03-23T04:56:55;14.00;;;5.32;;
836;SDS011;400;53.550;9.932;2024-03-23T04:59:26;19.10;;;4.80;;
836;SDS011;400;53.550;9.932;2024-03-23T05:01:52;13.75;;;4.90;;
836;SDS011;400;53.550;9.932;2024-03-23T05:04:18;19.70;;;5.50;;
836;SDS011;400;53.550;9.932;2024-03-23T05:06:45;16.13;;;4.72;;
836;SDS011;400;53.550;9.932;2024-03-23T05:09:11;18.30;;;4.53;;
836;SDS011;400;53.550;9.932;2024-03-23T05:11:38;11.02;;;3.78;;
836;SDS011;400;53.550;9.932;2024-03-23T05:14:04;13.75;;;4.50;;
836;SDS011;400;53.550;9.932;2024-03-23T05:16:32;11.18;;;4.75;;
836;SDS011;400;53.550;9.932;2024-03-23T05:18:58;12.55;;;3.85;;
836;SDS011;400;53.550;9.932;2024-03-23T05:21:25;19.70;;;4.90;;
836;SDS011;400;53.550;9.932;2024-03-23T05:23:53;21.00;;;4.03;;
836;SDS011;400;53.550;9.932;2024-03-23T05:26:21;21.20;;;5.97;;
836;SDS011;400;53.550;9.932;2024-03-23T05:28:46;17.48;;;5.07;;
836;SDS011;400;53.550;9.932;2024-03-23T05:31:22;13.25;;;4.28;;
836;SDS011;400;53.550;9.932;2024-03-23T05:33:49;16.55;;;4.10;;
836;SDS011;400;53.550;9.932;2024-03-23T05:36:17;12.02;;;4.20;;
836;SDS011;400;53.550;9.932;2024-03-23T05:38:43;9.52;;;4.25;;
836;SDS011;400;53.550;9.932;2024-03-23T05:41:10;14.45;;;4.70;;
836;SDS011;400;53.550;9.932;2024-03-23T05:43:36;14.43;;;4.63;;
836;SDS011;400;53.550;9.932;2024-03-23T05:46:03;15.75;;;5.00;;
836;SDS011;400;53.550;9.932;2024-03-23T05:48:29;12.35;;;3.90;;
836;SDS011;400;53.550;9.932;2024-03-23T05:50:58;17.02;;;5.03;;
836;SDS011;400;53.550;9.932;2024-03-23T05:53:24;19.50;;;4.75;;
836;SDS011;400;53.550;9.932;2024-03-23T05:55:51;14.05;;;3.35;;
836;SDS011;400;53.550;9.932;2024-03-23T05:58:25;13.68;;;4.47;;
836;SDS011;400;53.550;9.932;2024-03-23T06:00:56;15.25;;;5.18;;
836;SDS011;400;53.550;9.932;2024-03-23T06:03:23;15.15;;;4.75;;
836;SDS011;400;53.550;9.932;2024-03-23T06:05:50;12.35;;;3.85;;
836;SDS011;400;53.550;9.932;2024-03-23T06:08:17;16.00;;;5.03;;
836;SDS011;400;53.550;9.932;2024-03-23T06:10:44;17.63;;;3.47;;
836;SDS011;400;53.550;9.932;2024-03-23T06:13:10;15.23;;;4.73;;
836;SDS011;400;53.550;9.932;2024-03-23T06:15:37;15.73;;;4.20;;
836;SDS011;400;53.550;9.932;2024-03-23T06:18:03;13.90;;;3.75;;
836;SDS011;400;53.550;9.932;2024-03-23T06:20:32;13.13;;;4.85;;
836;SDS011;400;53.550;9.932;2024-03-23T06:22:58;12.47;;;4.80;;
836;SDS011;400;53.550;9.932;2024-03-23T06:25:27;12.25;;;4.55;;
836;SDS011;400;53.550;9.932;2024-03-23T06:27:53;10.13;;;3.90;;
836;SDS011;400;53.550;9.932;2024-03-23T06:30:19;14.35;;;4.45;;
836;SDS011;400;53.550;9.932;2024-03-23T06:32:45;12.07;;;3.53;;
836;SDS011;400;53.550;9.932;2024-03-23T06:35:12;19.63;;;3.92;;
836;SDS011;400;53.550;9.932;2024-03-23T06:37:38;18.00;;;4.20;;
836;SDS011;400;53.550;9.932;2024-03-23T06:40:06;16.73;;;4.60;;
836;SDS011;400;53.550;9.932;2024-03-23T06:42:36;9.65;;;3.47;;
836;SDS011;400;53.550;9.932;2024-03-23T06:45:03;17.67;;;3.63;;
836;SDS011;400;53.550;9.932;2024-03-23T06:47:29;15.60;;;3.78;;
836;SDS011;400;53.550;9.932;2024-03-23T06:49:56;18.02;;;4.35;;
836;SDS011;400;53.550;9.932;2024-03-23T06:52:22;18.67;;;4.60;;
836;SDS011;400;53.550;9.932;2024-03-23T06:54:49;16.23;;;3.97;;
836;SDS011;400;53.550;9.932;2024-03-23T06:57:15;14.40;;;4.70;;
836;SDS011;400;53.550;9.932;2024-03-23T06:59:43;12.43;;;4.13;;
836;SDS011;400;53.550;9.932;2024-03-23T07:02:09;16.30;;;3.50;;
836;SDS011;400;53.550;9.932;2024-03-23T07:04:35;11.27;;;3.58;;
836;SDS011;400;53.550;9.932;2024-03-23T07:07:01;10.87;;;4.60;;
836;SDS011;400;53.550;9.932;2024-03-23T07:09:29;11.65;;;4.22;;
836;SDS011;400;53.550;9.932;2024-03-23T07:11:54;9.65;;;3.78;;
836;SDS011;400;53.550;9.932;2024-03-23T07:14:22;15.15;;;5.28;;
836;SDS011;400;53.550;9.932;2024-03-23T07:16:49;16.13;;;5.32;;
836;SDS011;400;53.550;9.932;2024-03-23T07:19:17;13.55;;;4.50;;
836;SDS011;400;53.550;9.932;2024-03-23T07:21:43;12.70;;;3.65;;
836;SDS011;400;53.550;9.932;2024-03-23T07:24:10;8.48;;;3.38;;
836;SDS011;400;53.550;9.932;2024-03-23T07:26:36;12.02;;;4.13;;
836;SDS011;400;53.550;9.932;2024-03-23T07:29:03;37.65;;;26.38;;
836;SDS011;400;53.550;9.932;2024-03-23T07:31:29;22.37;;;10.50;;
836;SDS011;400;53.550;9.932;2024-03-23T07:33:59;10.82;;;4.20;;
836;SDS011;400;53.550;9.932;2024-03-23T07:36:26;15.30;;;6.80;;
836;SDS011;400;53.550;9.932;2024-03-23T07:38:53;15.52;;;3.75;;
836;SDS011;400;53.550;9.932;2024-03-23T07:41:20;12.30;;;5.90;;
836;SDS011;400;53.550;9.932;2024-03-23T07:43:48;12.43;;;5.43;;
836;SDS011;400;53.550;9.932;2024-03-23T07:46:14;16.40;;;4.25;;
836;SDS011;400;53.550;9.932;2024-03-23T07:48:42;13.13;;;4.47;;
836;SDS011;400;53.550;9.932;2024-03-23T07:51:09;18.35;;;7.45;;
836;SDS011;400;53.550;9.932;2024-03-23T07:53:37;12.52;;;5.03;;
836;SDS011;400;53.550;9.932;2024-03-23T07:56:05;16.63;;;6.30;;
836;SDS011;400;53.550;9.932;2024-03-23T07:58:32;14.40;;;4.75;;
836;SDS011;400;53.550;9.932;2024-03-23T08:01:03;19.02;;;6.68;;
836;SDS011;400;53.550;9.932;2024-03-23T08:03:33;12.70;;;3.47;;
836;SDS011;400;53.550;9.932;2024-03-23T08:06:06;11.53;;;6.37;;
836;SDS011;400;53.550;9.932;2024-03-23T08:08:35;13.75;;;5.55;;
836;SDS011;400;53.550;9.932;2024-03-23T08:11:02;21.63;;;11.90;;
836;SDS011;400;53.550;9.932;2024-03-23T08:13:32;15.43;;;5.28;;
836;SDS011;400;53.550;9.932;2024-03-23T08:15:59;9.68;;;5.13;;
836;SDS011;400;53.550;9.932;2024-03-23T08:18:26;16.58;;;4.40;;
836;SDS011;400;53.550;9.932;2024-03-23T08:20:56;15.00;;;5.47;;
836;SDS011;400;53.550;9.932;2024-03-23T08:23:26;11.23;;;4.22;;
836;SDS011;400;53.550;9.932;2024-03-23T08:25:57;15.43;;;3.95;;
836;SDS011;400;53.550;9.932;2024-03-23T08:28:24;7.50;;;3.40;;
836;SDS011;400;53.550;9.932;2024-03-23T08:30:50;8.38;;;3.10;;
836;SDS011;400;53.550;9.932;2024-03-23T08:33:17;9.07;;;3.05;;
836;SDS011;400;53.550;9.932;2024-03-23T08:35:43;11.90;;;3.43;;
836;SDS011;400;53.550;9.932;2024-03-23T08:38:20;11.05;;;3.05;;
836;SDS011;400;53.550;9.932;2024-03-23T08:40:47;10.38;;;3.75;;
836;SDS011;400;53.550;9.932;2024-03-23T08:43:15;9.67;;;3.30;;
836;SDS011;400;53.550;9.932;2024-03-23T08:45:45;10.65;;;3.40;;
836;SDS011;400;53.550;9.932;2024-03-23T08:48:16;11.70;;;3.50;;
836;SDS011;400;53.550;9.932;2024-03-23T08:50:58;6.78;;;3.20;;
836;SDS011;400;53.550;9.932;2024-03-23T08:53:33;7.25;;;3.35;;
836;SDS011;400;53.550;9.932;2024-03-23T08:56:01;10.68;;;4.30;;
836;SDS011;400;53.550;9.932;2024-03-23T08:58:29;13.45;;;4.00;;
836;SDS011;400;53.550;9.932;2024-03-23T09:01:03;12.55;;;3.20;;
836;SDS011;400;53.550;9.932;2024-03-23T09:03:31;10.40;;;3.33;;
836;SDS011;400;53.550;9.932;2024-03-23T09:05:57;5.53;;;2.67;;
836;SDS011;400;53.550;9.932;2024-03-23T09:08:25;9.13;;;2.90;;
836;SDS011;400;53.550;9.932;2024-03-23T09:10:55;8.77;;;2.80;;
836;SDS011;400;53.550;9.932;2024-03-23T09:13:23;6.03;;;2.70;;
836;SDS011;400;53.550;9.932;2024-03-23T09:15:50;8.35;;;2.88;;
836;SDS011;400;53.550;9.932;2024-03-23T09:18:21;7.65;;;2.90;;
836;SDS011;400;53.550;9.932;2024-03-23T09:20:47;7.03;;;2.45;;
836;SDS011;400;53.550;9.932;2024-03-23T09:23:15;5.53;;;3.08;;
836;SDS011;400;53.550;9.932;2024-03-23T09:25:43;7.05;;;2.45;;
836;SDS011;400;53.550;9.932;2024-03-23T09:28:14;7.90;;;2.37;;
836;SDS011;400;53.550;9.932;2024-03-23T09:30:42;9.63;;;2.80;;
836;SDS011;400;53.550;9.932;2024-03-23T09:33:10;9.15;;;2.55;;
836;SDS011;400;53.550;9.932;2024-03-23T09:35:40;5.53;;;2.87;;
836;SDS011;400;53.550;9.932;2024-03-23T09:38:09;6.30;;;2.05;;
836;SDS011;400;53.550;9.932;2024-03-23T09:40:39;7.90;;;2.60;;
836;SDS011;400;53.550;9.932;2024-03-23T09:43:08;7.78;;;2.78;;
836;SDS011;400;53.550;9.932;2024-03-23T09:45:35;7.60;;;2.37;;
836;SDS011;400;53.550;9.932;2024-03-23T09:48:07;7.13;;;2.65;;
836;SDS011;400;53.550;9.932;2024-03-23T09:50:34;6.53;;;3.50;;
836;SDS011;400;53.550;9.932;2024-03-23T09:53:02;8.05;;;2.58;;
836;SDS011;400;53.550;9.932;2024-03-23T09:55:29;7.83;;;2.20;;
836;SDS011;400;53.550;9.932;2024-03-23T09:58:01;7.10;;;2.75;;
836;SDS011;400;53.550;9.932;2024-03-23T10:00:31;7.63;;;2.57;;
836;SDS011;400;53.550;9.932;2024-03-23T10:03:01;8.00;;;3.00;;
836;SDS011;400;53.550;9.932;2024-03-23T10:05:29;8.50;;;2.30;;
836;SDS011;400;53.550;9.932;2024-03-23T10:08:00;7.78;;;2.70;;
836;SDS011;400;53.550;9.932;2024-03-23T10:10:46;7.37;;;2.77;;
836;SDS011;400;53.550;9.932;2024-03-23T10:13:25;5.67;;;2.63;;
836;SDS011;400;53.550;9.932;2024-03-23T10:15:56;6.20;;;2.40;;
836;SDS011;400;53.550;9.932;2024-03-23T10:18:27;8.35;;;2.15;;
836;SDS011;400;53.550;9.932;2024-03-23T10:21:07;6.83;;;2.10;;
836;SDS011;400;53.550;9.932;2024-03-23T10:23:37;5.03;;;2.00;;
836;SDS011;400;53.550;9.932;2024-03-23T10:26:14;5.50;;;2.00;;
836;SDS011;400;53.550;9.932;2024-03-23T10:31:34;9.07;;;2.70;;
836;SDS011;400;53.550;9.932;2024-03-23T10:34:02;8.13;;;2.67;;
836;SDS011;400;53.550;9.932;2024-03-23T10:36:31;5.90;;;2.00;;
836;SDS011;400;53.550;9.932;2024-03-23T10:39:04;6.60;;;3.10;;
836;SDS011;400;53.550;9.932;2024-03-23T10:41:32;3.40;;;1.70;;
836;SDS011;400;53.550;9.932;2024-03-23T10:43:59;8.03;;;2.00;;
836;SDS011;400;53.550;9.932;2024-03-23T10:46:28;6.40;;;2.90;;
836;SDS011;400;53.550;9.932;2024-03-23T10:48:57;5.97;;;2.87;;
836;SDS011;400;53.550;9.932;2024-03-23T10:51:23;6.30;;;2.93;;
836;SDS011;400;53.550;9.932;2024-03-23T10:53:52;11.10;;;3.07;;
836;SDS011;400;53.550;9.932;2024-03-23T10:56:20;13.60;;;2.70;;
836;SDS011;400;53.550;9.932;2024-03-23T10:58:49;9.47;;;2.03;;
836;SDS011;400;53.550;9.932;2024-03-23T11:01:18;9.00;;;2.53;;
836;SDS011;400;53.550;9.932;2024-03-23T11:03:47;9.60;;;2.83;;
836;SDS011;400;53.550;9.932;2024-03-23T11:06:34;7.57;;;2.23;;
836;SDS011;400;53.550;9.932;2024-03-23T11:09:04;8.00;;;2.43;;
836;SDS011;400;53.550;9.932;2024-03-23T11:11:53;5.00;;;2.70;;
836;SDS011;400;53.550;9.932;2024-03-23T11:14:22;2.80;;;1.40;;
836;SDS011;400;53.550;9.932;2024-03-23T11:16:50;5.30;;;1.83;;
836;SDS011;400;53.550;9.932;2024-03-23T11:19:36;8.33;;;1.80;;
836;SDS011;400;53.550;9.932;2024-03-23T11:22:04;5.43;;;2.00;;
836;SDS011;400;53.550;9.932;2024-03-23T11:24:34;5.28;;;1.65;;
836;SDS011;400;53.550;9.932;2024-03-23T11:27:00;5.70;;;1.90;;
836;SDS011;400;53.550;9.932;2024-03-23T11:29:30;6.30;;;1.90;;
836;SDS011;400;53.550;9.932;2024-03-23T11:31:58;3.10;;;2.10;;
836;SDS011;400;53.550;9.932;2024-03-23T11:34:28;4.00;;;1.60;;
836;SDS011;400;53.550;9.932;2024-03-23T11:37:03;6.50;;;1.80;;
836;SDS011;400;53.550;9.932;2024-03-23T11:39:31;1.83;;;1.50;;
836;SDS011;400;53.550;9.932;2024-03-23T11:41:58;6.10;;;1.83;;
836;SDS011;400;53.550;9.932;2024-03-23T11:44:25;5.30;;;1.87;;
836;SDS011;400;53.550;9.932;2024-03-23T11:46:54;4.53;;;1.53;;
836;SDS011;400;53.550;9.932;2024-03-23T11:49:38;4.83;;;1.50;;
836;SDS011;400;53.550;9.932;2024-03-23T11:52:06;5.27;;;1.60;;
836;SDS011;400;53.550;9.932;2024-03-23T11:54:34;4.27;;;1.70;;
836;SDS011;400;53.550;9.932;2024-03-23T11:57:06;4.63;;;1.83;;
836;SDS011;400;53.550;9.932;2024-03-23T11:59:35;4.90;;;1.67;;
836;SDS011;400;53.550;9.932;2024-03-23T12:02:05;2.63;;;0.80;;
836;SDS011;400;53.550;9.932;2024-03-23T12:04:34;0.80;;;0.50;;
836;SDS011;400;53.550;9.932;2024-03-23T12:07:11;0.50;;;0.50;;
836;SDS011;400;53.550;9.932;2024-03-23T12:09:41;0.80;;;0.67;;
836;SDS011;400;53.550;9.932;2024-03-23T12:12:10;1.70;;;0.67;;
836;SDS011;400;53.550;9.932;2024-03-23T12:14:41;1.60;;;0.70;;
836;SDS011;400;53.550;9.932;2024-03-23T12:17:11;0.73;;;0.60;;
836;SDS011;400;53.550;9.932;2024-03-23T12:19:41;0.80;;;0.50;;
836;SDS011;400;53.550;9.932;2024-03-23T12:22:12;1.02;;;0.55;;
836;SDS011;400;53.550;9.932;2024-03-23T12:24:43;0.77;;;0.60;;
836;SDS011;400;53.550;9.932;2024-03-23T12:27:15;1.77;;;0.70;;
836;SDS011;400;53.550;9.932;2024-03-23T12:29:45;1.95;;;0.90;;
836;SDS011;400;53.550;9.932;2024-03-23T12:32:11;3.73;;;1.50;;
836;SDS011;400;53.550;9.932;2024-03-23T12:34:39;4.03;;;1.10;;
836;SDS011;400;53.550;9.932;2024-03-23T12:37:06;2.83;;;1.00;;
836;SDS011;400;53.550;9.932;2024-03-23T12:39:33;3.42;;;0.73;;
836;SDS011;400;53.550;9.932;2024-03-23T12:42:00;1.77;;;0.80;;
836;SDS011;400;53.550;9.932;2024-03-23T12:44:29;1.50;;;0.70;;
836;SDS011;400;53.550;9.932;2024-03-23T12:46:54;3.67;;;0.82;;
836;SDS011;400;53.550;9.932;2024-03-23T12:49:21;0.50;;;0.30;;
836;SDS011;400;53.550;9.932;2024-03-23T12:51:48;1.90;;;1.00;;
836;SDS011;400;53.550;9.932;2024-03-23T12:54:21;1.60;;;0.95;;
836;SDS011;400;53.550;9.932;2024-03-23T12:56:47;1.27;;;0.57;;
836;SDS011;400;53.550;9.932;2024-03-23T12:59:14;2.13;;;1.00;;
836;SDS011;400;53.550;9.932;2024-03-23T13:01:43;2.05;;;0.80;;
836;SDS011;400;53.550;9.932;2024-03-23T13:04:09;1.40;;;0.82;;
836;SDS011;400;53.550;9.932;2024-03-23T13:06:37;3.72;;;1.33;;
836;SDS011;400;53.550;9.932;2024-03-23T13:09:11;3.53;;;0.75;;
836;SDS011;400;53.550;9.932;2024-03-23T13:11:49;3.65;;;1.55;;
836;SDS011;400;53.550;9.932;2024-03-23T13:14:18;3.20;;;1.10;;
836;SDS011;400;53.550;9.932;2024-03-23T13:16:48;3.70;;;1.35;;
836;SDS011;400;53.550;9.932;2024-03-23T13:19:18;2.67;;;1.10;;
836;SDS011;400;53.550;9.932;2024-03-23T13:21:52;1.58;;;0.90;;
836;SDS011;400;53.550;9.932;2024-03-23T13:24:23;2.30;;;1.20;;
836;SDS011;400;53.550;9.932;2024-03-23T13:26:51;1.00;;;0.80;;
836;SDS011;400;53.550;9.932;2024-03-23T13:29:17;3.47;;;0.70;;
836;SDS011;400;53.550;9.932;2024-03-23T13:31:44;2.10;;;1.30;;
836;SDS011;400;53.550;9.932;2024-03-23T13:34:11;2.20;;;0.97;;
836;SDS011;400;53.550;9.932;2024-03-23T13:36:40;2.25;;;1.10;;
836;SDS011;400;53.550;9.932;2024-03-23T13:39:07;4.28;;;2.97;;
836;SDS011;400;53.550;9.932;2024-03-23T13:41:37;2.95;;;1.15;;
836;SDS011;400;53.550;9.932;2024-03-23T13:44:04;1.42;;;0.80;;
836;SDS011;400;53.550;9.932;2024-03-23T13:46:35;3.03;;;1.50;;
836;SDS011;400;53.550;9.932;2024-03-23T13:49:01;3.73;;;3.20;;
836;SDS011;400;53.550;9.932;2024-03-23T13:51:29;2.43;;;1.57;;
836;SDS011;400;53.550;9.932;2024-03-23T13:53:55;3.38;;;0.90;;
836;SDS011;400;53.550;9.932;2024-03-23T13:56:27;1.10;;;0.60;;
836;SDS011;400;53.550;9.932;2024-03-23T13:58:53;1.43;;;0.90;;
836;SDS011;400;53.550;9.932;2024-03-23T14:01:20;1.98;;;0.63;;
836;SDS011;400;53.550;9.932;2024-03-23T14:03:46;0.83;;;0.83;;
836;SDS011;400;53.550;9.932;2024-03-23T14:06:14;2.30;;;0.60;;
836;SDS011;400;53.550;9.932;2024-03-23T14:08:42;1.17;;;0.75;;
836;SDS011;400;53.550;9.932;2024-03-23T14:11:09;0.70;;;0.70;;
836;SDS011;400;53.550;9.932;2024-03-23T14:13:37;3.43;;;0.80;;
836;SDS011;400;53.550;9.932;2024-03-23T14:16:06;7.10;;;4.90;;
836;SDS011;400;53.550;9.932;2024-03-23T14:18:32;1.20;;;0.73;;
836;SDS011;400;53.550;9.932;2024-03-23T14:20:59;1.23;;;1.13;;
836;SDS011;400;53.550;9.932;2024-03-23T14:23:25;2.72;;;0.63;;
836;SDS011;400;53.550;9.932;2024-03-23T14:25:58;3.85;;;1.05;;
836;SDS011;400;53.550;9.932;2024-03-23T14:28:28;2.70;;;1.00;;
836;SDS011;400;53.550;9.932;2024-03-23T14:30:58;2.53;;;0.87;;
836;SDS011;400;53.550;9.932;2024-03-23T14:33:24;2.97;;;1.07;;
836;SDS011;400;53.550;9.932;2024-03-23T14:35:54;2.85;;;1.27;;
836;SDS011;400;53.550;9.932;2024-03-23T14:38:20;2.20;;;1.40;;
836;SDS011;400;53.550;9.932;2024-03-23T14:40:50;1.02;;;0.90;;
836;SDS011;400;53.550;9.932;2024-03-23T14:43:19;4.32;;;1.35;;
836;SDS011;400;53.550;9.932;2024-03-23T14:46:05;3.87;;;1.93;;
836;SDS011;400;53.550;9.932;2024-03-23T14:48:33;4.20;;;1.15;;
836;SDS011;400;53.550;9.932;2024-03-23T14:51:00;3.20;;;1.13;;
836;SDS011;400;53.550;9.932;2024-03-23T14:53:29;4.40;;;1.00;;
836;SDS011;400;53.550;9.932;2024-03-23T14:55:57;3.28;;;1.45;;
836;SDS011;400;53.550;9.932;2024-03-23T14:58:24;3.70;;;1.15;;
836;SDS011;400;53.550;9.932;2024-03-23T15:00:50;1.63;;;1.15;;
836;SDS011;400;53.550;9.932;2024-03-23T15:03:17;2.58;;;0.90;;
836;SDS011;400;53.550;9.932;2024-03-23T15:05:51;1.45;;;0.77;;
836;SDS011;400;53.550;9.932;2024-03-23T15:08:17;3.78;;;1.80;;
836;SDS011;400;53.550;9.932;2024-03-23T15:10:44;2.25;;;0.85;;
836;SDS011;400;53.550;9.932;2024-03-23T15:13:10;1.03;;;0.90;;
836;SDS011;400;53.550;9.932;2024-03-23T15:15:43;1.77;;;1.08;;
836;SDS011;400;53.550;9.932;2024-03-23T15:18:12;0.70;;;0.45;;
836;SDS011;400;53.550;9.932;2024-03-23T15:20:51;3.53;;;2.17;;
836;SDS011;400;53.550;9.932;2024-03-23T15:23:22;3.20;;;2.42;;
836;SDS011;400;53.550;9.932;2024-03-23T15:25:53;5.55;;;3.10;;
836;SDS011;400;53.550;9.932;2024-03-23T15:28:19;1.43;;;0.73;;
836;SDS011;400;53.550;9.932;2024-03-23T15:30:49;2.50;;;0.80;;
836;SDS011;400;53.550;9.932;2024-03-23T15:33:16;3.03;;;1.33;;
836;SDS011;400;53.550;9.932;2024-03-23T15:35:43;2.67;;;1.10;;
836;SDS011;400;53.550;9.932;2024-03-23T15:38:09;0.90;;;0.80;;
836;SDS011;400;53.550;9.932;2024-03-23T15:40:35;2.22;;;1.10;;
836;SDS011;400;53.550;9.932;2024-03-23T15:43:06;3.88;;;2.53;;
836;SDS011;400;53.550;9.932;2024-03-23T15:45:33;1.52;;;1.42;;
836;SDS011;400;53.550;9.932;2024-03-23T15:48:00;2.30;;;1.40;;
836;SDS011;400;53.550;9.932;2024-03-23T15:50:27;3.17;;;1.90;;
836;SDS011;400;53.550;9.932;2024-03-23T15:52:52;6.37;;;1.97;;
836;SDS011;400;53.550;9.932;2024-03-23T15:55:20;6.13;;;1.65;;
836;SDS011;400;53.550;9.932;2024-03-23T15:57:47;5.50;;;1.57;;
836;SDS011;400;53.550;9.932;2024-03-23T16:00:15;4.37;;;1.20;;
836;SDS011;400;53.550;9.932;2024-03-23T16:02:44;11.73;;;3.90;;
836;SDS011;400;53.550;9.932;2024-03-23T16:05:13;3.55;;;2.70;;
836;SDS011;400;53.550;9.932;2024-03-23T16:07:39;2.95;;;1.35;;
836;SDS011;400;53.550;9.932;2024-03-23T16:10:09;2.10;;;1.20;;
836;SDS011;400;53.550;9.932;2024-03-23T16:12:36;5.47;;;3.28;;
836;SDS011;400;53.550;9.932;2024-03-23T16:15:04;2.45;;;1.38;;
836;SDS011;400;53.550;9.932;2024-03-23T16:17:30;2.67;;;2.13;;
836;SDS011;400;53.550;9.932;2024-03-23T16:20:02;3.60;;;3.30;;
836;SDS011;400;53.550;9.932;2024-03-23T16:22:33;5.18;;;1.20;;
836;SDS011;400;53.550;9.932;2024-03-23T16:25:03;1.48;;;0.90;;
836;SDS011;400;53.550;9.932;2024-03-23T16:27:33;3.70;;;1.95;;
836;SDS011;400;53.550;9.932;2024-03-23T16:30:06;2.08;;;1.45;;
836;SDS011;400;53.550;9.932;2024-03-23T16:32:35;2.63;;;0.90;;
836;SDS011;400;53.550;9.932;2024-03-23T16:35:05;1.53;;;1.10;;
836;SDS011;400;53.550;9.932;2024-03-23T16:37:37;1.63;;;0.93;;